createdAt,value
2019-03-06T00:01:05.563Z,8.80
2019-03-06T00:03:35.203Z,8.28
2019-03-06T00:06:05.158Z,7.65
2019-03-06T00:08:34.806Z,7.80
2019-03-06T00:11:04.555Z,7.90
2019-03-06T00:13:34.376Z,8.23
2019-03-06T00:16:03.993Z,9.08
2019-03-06T00:18:33.640Z,8.03
2019-03-06T00:21:03.253Z,8.25
2019-03-06T00:23:32.890Z,8.15
2019-03-06T00:26:02.514Z,8.65
2019-03-06T00:28:32.148Z,9.35
2019-03-06T00:31:01.775Z,8.65
2019-03-06T00:33:31.412Z,8.78
2019-03-06T00:36:02.664Z,8.10
2019-03-06T00:38:32.311Z,8.20
2019-03-06T00:41:03.576Z,8.08
2019-03-06T00:43:33.287Z,8.00
2019-03-06T00:46:02.976Z,8.28
2019-03-06T00:48:32.907Z,8.00
2019-03-06T00:51:02.531Z,9.03
2019-03-06T00:53:32.169Z,9.75
2019-03-06T00:56:01.794Z,9.80
2019-03-06T00:58:31.442Z,8.98
2019-03-06T01:01:01.123Z,8.95
2019-03-06T01:03:30.766Z,9.65
2019-03-06T01:06:00.451Z,9.03
2019-03-06T01:08:30.497Z,11.38
2019-03-06T01:11:00.116Z,9.18
2019-03-06T01:13:29.827Z,9.43
2019-03-06T01:15:59.451Z,11.00
2019-03-06T01:18:29.534Z,10.23
2019-03-06T01:20:59.159Z,11.53
2019-03-06T01:23:29.145Z,10.32
2019-03-06T01:25:58.764Z,9.80
2019-03-06T01:28:28.408Z,10.55
2019-03-06T01:30:58.093Z,8.98
2019-03-06T01:33:32.056Z,9.45
2019-03-06T01:36:08.833Z,8.40
2019-03-06T01:38:48.753Z,8.53
2019-03-06T01:41:26.043Z,11.18
2019-03-06T01:43:57.328Z,11.48
2019-03-06T01:46:27.020Z,10.15
2019-03-06T01:48:56.655Z,9.10
2019-03-06T01:51:26.350Z,10.48
2019-03-06T01:53:56.144Z,8.90
2019-03-06T01:56:25.790Z,10.38
2019-03-06T01:58:55.409Z,11.90
2019-03-06T02:01:25.050Z,10.48
2019-03-06T02:03:54.669Z,10.38
2019-03-06T02:06:24.446Z,9.23
2019-03-06T02:08:54.070Z,11.03
2019-03-06T02:11:23.712Z,12.18
2019-03-06T02:13:53.331Z,10.00
2019-03-06T02:16:22.973Z,9.73
2019-03-06T02:18:52.663Z,9.90
2019-03-06T02:21:22.379Z,10.68
2019-03-06T02:23:51.992Z,8.30
2019-03-06T02:26:21.633Z,8.30
2019-03-06T02:28:51.434Z,13.65
2019-03-06T02:31:21.084Z,12.75
2019-03-06T02:33:50.705Z,9.70
2019-03-06T02:36:20.353Z,9.58
2019-03-06T02:38:49.982Z,8.93
2019-03-06T02:41:19.998Z,10.58
2019-03-06T02:43:49.616Z,9.75
2019-03-06T02:46:19.270Z,10.68
2019-03-06T02:48:48.887Z,8.75
2019-03-06T02:51:18.536Z,9.45
2019-03-06T02:53:48.432Z,7.78
2019-03-06T02:56:18.081Z,10.28
2019-03-06T02:58:52.018Z,11.65
2019-03-06T03:01:26.210Z,11.68
2019-03-06T03:06:36.745Z,9.05
2019-03-06T03:11:38.274Z,8.73
2019-03-06T03:14:08.265Z,9.63
2019-03-06T03:16:37.906Z,9.80
2019-03-06T03:19:07.521Z,8.73
2019-03-06T03:21:37.153Z,10.08
2019-03-06T03:24:06.844Z,9.48
2019-03-06T03:26:36.669Z,9.45
2019-03-06T03:29:06.282Z,9.25
2019-03-06T03:31:35.922Z,9.05
2019-03-06T03:34:05.609Z,8.83
2019-03-06T03:36:35.242Z,9.68
2019-03-06T03:39:07.548Z,9.43
2019-03-06T03:41:37.196Z,9.23
2019-03-06T03:44:06.889Z,9.68
2019-03-06T03:46:36.578Z,9.90
2019-03-06T03:49:06.406Z,10.40
2019-03-06T03:51:36.338Z,8.18
2019-03-06T03:54:06.152Z,8.53
2019-03-06T03:56:35.793Z,7.90
2019-03-06T03:59:05.480Z,9.45
2019-03-06T04:01:35.123Z,8.10
2019-03-06T04:04:05.084Z,7.90
2019-03-06T04:06:34.804Z,6.65
2019-03-06T04:09:05.961Z,8.45
2019-03-06T04:11:35.605Z,8.55
2019-03-06T04:14:05.484Z,7.53
2019-03-06T04:16:35.129Z,8.08
2019-03-06T04:19:04.744Z,7.20
2019-03-06T04:21:34.383Z,6.97
2019-03-06T04:24:03.999Z,7.35
2019-03-06T04:26:33.650Z,8.13
2019-03-06T04:29:03.262Z,7.35
2019-03-06T04:31:33.040Z,9.35
2019-03-06T04:34:02.656Z,7.03
2019-03-06T04:36:32.295Z,7.60
2019-03-06T04:39:01.913Z,7.55
2019-03-06T04:41:31.548Z,7.20
2019-03-06T04:44:01.166Z,6.90
2019-03-06T04:46:30.812Z,7.35
2019-03-06T04:49:00.423Z,7.10
2019-03-06T04:51:30.039Z,8.78
2019-03-06T04:53:59.686Z,6.72
2019-03-06T04:56:29.361Z,6.00
2019-03-06T04:58:59.004Z,5.62
2019-03-06T05:01:28.998Z,5.78
2019-03-06T05:03:59.078Z,5.58
2019-03-06T05:06:28.687Z,6.03
2019-03-06T05:08:58.334Z,6.50
2019-03-06T05:11:28.086Z,5.95
2019-03-06T05:13:57.731Z,5.87
2019-03-06T05:16:31.732Z,5.95
2019-03-06T05:19:01.446Z,5.95
2019-03-06T05:21:31.098Z,7.05
2019-03-06T05:24:00.781Z,4.50
2019-03-06T05:26:30.392Z,6.67
2019-03-06T05:29:00.043Z,5.80
2019-03-06T05:31:29.651Z,7.22
2019-03-06T05:33:59.296Z,5.10
2019-03-06T05:36:44.708Z,6.22
2019-03-06T05:39:14.350Z,5.20
2019-03-06T05:41:43.963Z,5.15
2019-03-06T05:44:13.602Z,6.40
2019-03-06T05:46:43.217Z,5.37
2019-03-06T05:49:12.930Z,4.87
2019-03-06T05:51:42.541Z,4.58
2019-03-06T05:54:12.178Z,4.45
2019-03-06T05:56:41.788Z,3.70
2019-03-06T05:59:11.433Z,4.28
2019-03-06T06:01:41.040Z,3.80
2019-03-06T06:04:10.682Z,4.80
2019-03-06T06:06:40.294Z,4.12
2019-03-06T06:09:09.936Z,4.75
2019-03-06T06:11:39.628Z,5.55
2019-03-06T06:14:09.265Z,4.22
2019-03-06T06:16:38.880Z,3.85
2019-03-06T06:19:08.524Z,4.80
2019-03-06T06:21:39.775Z,5.28
2019-03-06T06:24:10.665Z,4.55
2019-03-06T06:26:40.282Z,5.22
2019-03-06T06:29:09.915Z,4.80
2019-03-06T06:31:39.610Z,5.08
2019-03-06T06:34:09.244Z,4.50
2019-03-06T06:36:38.922Z,3.98
2019-03-06T06:39:08.701Z,5.05
2019-03-06T06:41:38.318Z,6.00
2019-03-06T06:44:07.955Z,4.45
2019-03-06T06:46:37.574Z,4.28
2019-03-06T06:49:07.205Z,4.30
2019-03-06T06:51:55.677Z,4.08
2019-03-06T06:54:41.692Z,5.67
2019-03-06T06:57:29.729Z,3.95
2019-03-06T07:00:26.823Z,5.35
2019-03-06T07:03:28.238Z,4.53
2019-03-06T07:05:59.521Z,6.28
2019-03-06T07:08:42.762Z,8.13
2019-03-06T07:11:14.046Z,7.20
2019-03-06T07:13:45.601Z,7.05
2019-03-06T07:16:28.792Z,5.03
2019-03-06T07:19:07.394Z,4.50
2019-03-06T07:21:51.592Z,3.80
2019-03-06T07:24:38.857Z,3.33
2019-03-06T07:27:19.695Z,3.67
2019-03-06T07:29:50.943Z,3.85
2019-03-06T07:32:20.346Z,4.55
2019-03-06T07:35:57.738Z,4.50
2019-03-06T07:38:28.096Z,4.87
2019-03-06T07:41:09.182Z,4.50
2019-03-06T07:43:44.414Z,4.12
2019-03-06T07:46:15.947Z,4.03
2019-03-06T07:49:03.715Z,5.10
2019-03-06T07:51:38.845Z,4.95
2019-03-06T07:54:13.067Z,4.60
2019-03-06T07:56:48.029Z,4.58
2019-03-06T07:59:17.665Z,5.15
2019-03-06T08:01:57.859Z,5.20
2019-03-06T08:04:27.566Z,4.92
2019-03-06T08:06:58.822Z,5.17
2019-03-06T08:09:28.462Z,5.60
2019-03-06T08:12:11.251Z,4.85
2019-03-06T08:14:40.660Z,5.17
2019-03-06T08:17:20.823Z,5.42
2019-03-06T08:20:02.260Z,5.60
2019-03-06T08:22:42.456Z,5.60
2019-03-06T08:25:21.007Z,7.45
2019-03-06T08:27:50.807Z,7.70
2019-03-06T08:30:20.711Z,7.87
2019-03-06T08:32:50.326Z,7.10
2019-03-06T08:35:19.973Z,6.78
2019-03-06T08:37:49.581Z,8.05
2019-03-06T08:40:19.223Z,6.65
2019-03-06T08:42:48.830Z,5.95
2019-03-06T08:45:20.113Z,5.60
2019-03-06T08:48:00.866Z,5.97
2019-03-06T08:50:32.152Z,6.42
2019-03-06T08:53:12.698Z,5.47
2019-03-06T08:55:52.993Z,6.15
2019-03-06T08:58:30.203Z,8.80
2019-03-06T09:01:38.012Z,8.03
2019-03-06T09:04:26.588Z,6.05
2019-03-06T09:06:57.848Z,4.70
2019-03-06T09:09:42.326Z,4.58
2019-03-06T09:12:25.244Z,4.60
2019-03-06T09:14:54.669Z,5.95
2019-03-06T09:17:34.737Z,5.78
2019-03-06T09:20:11.714Z,5.53
2019-03-06T09:22:45.486Z,4.75
2019-03-06T09:25:25.765Z,6.42
2019-03-06T09:28:13.078Z,14.85
2019-03-06T09:30:44.488Z,17.75
2019-03-06T09:33:15.907Z,20.32
2019-03-06T09:36:03.775Z,11.25
2019-03-06T09:38:43.734Z,6.78
2019-03-06T09:41:19.111Z,4.97
2019-03-06T09:43:56.444Z,5.70
2019-03-06T09:46:27.793Z,3.60
2019-03-06T09:48:59.045Z,3.27
2019-03-06T09:51:30.339Z,3.33
2019-03-06T09:54:17.994Z,3.47
2019-03-06T09:56:49.652Z,4.92
2019-03-06T09:59:21.772Z,3.50
2019-03-06T10:01:53.054Z,4.78
2019-03-06T10:04:29.977Z,4.12
2019-03-06T10:07:01.334Z,3.20
2019-03-06T10:09:30.731Z,2.90
2019-03-06T10:12:07.608Z,3.62
2019-03-06T10:14:36.984Z,4.40
2019-03-06T10:17:08.646Z,5.60
2019-03-06T10:19:42.976Z,7.85
2019-03-06T10:22:12.588Z,7.80
2019-03-06T10:24:42.227Z,4.22
2019-03-06T10:27:11.848Z,2.83
2019-03-06T10:29:41.491Z,2.92
2019-03-06T10:32:11.177Z,7.22
2019-03-06T10:34:40.896Z,4.75
2019-03-06T10:37:10.585Z,1.80
2019-03-06T10:39:40.512Z,1.12
2019-03-06T10:42:10.213Z,1.70
2019-03-06T10:44:40.241Z,1.77
2019-03-06T10:47:09.853Z,1.40
2019-03-06T10:49:39.768Z,1.25
2019-03-06T10:52:09.524Z,1.60
2019-03-06T10:54:44.606Z,0.90
2019-03-06T10:57:11.890Z,1.75
2019-03-06T10:59:41.827Z,1.32
2019-03-06T11:02:11.801Z,1.10
2019-03-06T11:04:43.365Z,1.15
2019-03-06T11:07:13.791Z,0.70
2019-03-06T11:09:43.513Z,0.70
2019-03-06T11:12:13.275Z,0.57
2019-03-06T11:14:44.618Z,1.37
2019-03-06T11:17:14.558Z,1.12
2019-03-06T11:19:44.594Z,0.70
2019-03-06T11:22:14.491Z,1.00
2019-03-06T11:24:44.347Z,1.00
2019-03-06T11:27:14.106Z,1.80
2019-03-06T11:29:44.163Z,1.42
2019-03-06T11:32:14.021Z,0.85
2019-03-06T11:34:44.079Z,1.12
2019-03-06T11:37:13.832Z,1.10
2019-03-06T11:39:43.559Z,0.70
2019-03-06T11:42:13.317Z,0.75
2019-03-06T11:44:43.034Z,1.20
2019-03-06T11:47:13.948Z,1.30
2019-03-06T11:49:43.600Z,0.72
2019-03-06T11:52:14.226Z,0.62
2019-03-06T11:54:43.875Z,1.00
2019-03-06T11:57:13.567Z,0.70
2019-03-06T11:59:43.573Z,0.70
2019-03-06T12:02:15.090Z,1.50
2019-03-06T12:04:44.743Z,0.75
2019-03-06T12:07:14.435Z,0.57
2019-03-06T12:09:44.163Z,0.70
2019-03-06T12:12:13.855Z,1.30
2019-03-06T12:14:43.502Z,0.80
2019-03-06T12:17:14.232Z,0.50
2019-03-06T12:19:44.018Z,0.80
2019-03-06T12:22:13.911Z,0.78
2019-03-06T12:24:43.556Z,0.82
2019-03-06T12:27:13.618Z,0.55
2019-03-06T12:29:43.266Z,3.85
2019-03-06T12:32:12.966Z,1.50
2019-03-06T12:34:42.595Z,0.60
2019-03-06T12:37:12.312Z,0.80
2019-03-06T12:39:42.009Z,0.70
2019-03-06T12:42:15.204Z,0.50
2019-03-06T12:44:43.249Z,0.50
2019-03-06T12:47:13.159Z,1.32
2019-03-06T12:49:42.787Z,0.72
2019-03-06T12:52:12.647Z,0.70
2019-03-06T12:54:42.271Z,0.62
2019-03-06T12:57:12.197Z,1.27
2019-03-06T12:59:41.894Z,1.37
2019-03-06T13:02:11.542Z,1.60
2019-03-06T13:04:41.429Z,1.40
2019-03-06T13:07:11.174Z,0.70
2019-03-06T13:09:40.873Z,0.60
2019-03-06T13:12:10.725Z,0.40
2019-03-06T13:14:40.346Z,0.60
2019-03-06T13:17:10.133Z,0.40
2019-03-06T13:19:39.825Z,0.45
2019-03-06T13:22:12.244Z,0.50
2019-03-06T13:24:41.225Z,0.55
2019-03-06T13:27:10.876Z,0.50
2019-03-06T13:29:40.575Z,0.70
2019-03-06T13:32:12.188Z,3.10
2019-03-06T13:34:50.711Z,0.80
2019-03-06T13:37:13.167Z,1.55
2019-03-06T13:39:42.786Z,0.90
2019-03-06T13:42:12.436Z,1.42
2019-03-06T13:44:42.084Z,1.60
2019-03-06T13:47:11.851Z,1.30
2019-03-06T13:49:41.475Z,0.70
2019-03-06T13:52:12.799Z,1.05
2019-03-06T13:54:42.490Z,1.12
2019-03-06T13:57:12.571Z,0.88
2019-03-06T13:59:42.184Z,1.22
2019-03-06T14:02:11.976Z,1.57
2019-03-06T14:04:41.739Z,16.65
2019-03-06T14:07:11.740Z,7.90
2019-03-06T14:09:41.503Z,2.65
2019-03-06T14:12:11.223Z,3.50
2019-03-06T14:14:40.850Z,4.22
2019-03-06T14:17:10.498Z,2.10
2019-03-06T14:19:40.123Z,3.30
2019-03-06T14:22:09.909Z,1.42
2019-03-06T14:24:39.526Z,1.27
2019-03-06T14:27:10.756Z,1.25
2019-03-06T14:29:40.377Z,3.80
2019-03-06T14:32:14.579Z,3.83
2019-03-06T14:34:41.516Z,2.33
2019-03-06T14:37:11.234Z,5.17
2019-03-06T14:39:40.856Z,2.00
2019-03-06T14:42:10.651Z,1.70
2019-03-06T14:44:40.336Z,1.87
2019-03-06T14:47:10.870Z,1.95
2019-03-06T14:49:40.629Z,2.20
2019-03-06T14:52:10.351Z,2.95
2019-03-06T14:54:40.184Z,1.65
2019-03-06T14:57:09.898Z,2.10
2019-03-06T14:59:39.594Z,3.55
2019-03-06T15:02:09.656Z,3.37
2019-03-06T15:04:39.281Z,2.20
2019-03-06T15:07:09.065Z,3.10
2019-03-06T15:09:38.833Z,3.30
2019-03-06T15:12:08.559Z,5.33
2019-03-06T15:14:38.198Z,2.75
2019-03-06T15:17:08.066Z,2.65
2019-03-06T15:19:39.174Z,2.52
2019-03-06T15:22:09.053Z,2.70
2019-03-06T15:24:41.584Z,1.90
2019-03-06T15:27:10.203Z,2.60
2019-03-06T15:29:40.201Z,1.95
2019-03-06T15:32:09.817Z,1.90
2019-03-06T15:34:39.606Z,1.80
2019-03-06T15:37:09.301Z,5.08
2019-03-06T15:39:44.484Z,3.60
2019-03-06T15:42:10.879Z,2.37
2019-03-06T15:44:40.739Z,2.85
2019-03-06T15:47:10.668Z,2.60
2019-03-06T15:49:40.383Z,2.70
2019-03-06T15:52:10.610Z,5.17
2019-03-06T15:54:40.539Z,5.15
2019-03-06T15:57:10.335Z,3.00
2019-03-06T15:59:40.593Z,4.67
2019-03-06T16:02:10.726Z,2.47
2019-03-06T16:04:40.594Z,6.75
2019-03-06T16:07:10.425Z,2.83
2019-03-06T16:09:40.313Z,2.72
2019-03-06T16:12:12.124Z,2.58
2019-03-06T16:14:41.587Z,5.72
2019-03-06T16:17:11.216Z,4.53
2019-03-06T16:19:40.927Z,2.70
2019-03-06T16:22:10.780Z,1.75
2019-03-06T16:24:40.430Z,2.10
2019-03-06T16:27:10.059Z,3.27
2019-03-06T16:29:39.699Z,1.80
2019-03-06T16:32:09.464Z,1.90
2019-03-06T16:34:39.175Z,1.82
2019-03-06T16:37:09.117Z,1.72
2019-03-06T16:39:38.905Z,2.12
2019-03-06T16:42:08.672Z,1.80
2019-03-06T16:44:38.320Z,1.90
2019-03-06T16:47:08.093Z,2.75
2019-03-06T16:49:38.193Z,6.65
2019-03-06T16:52:07.875Z,2.47
2019-03-06T16:54:37.522Z,2.20
2019-03-06T16:57:07.359Z,2.22
2019-03-06T16:59:37.076Z,3.62
2019-03-06T17:02:06.842Z,2.75
2019-03-06T17:04:36.565Z,2.52
2019-03-06T17:07:06.259Z,2.62
2019-03-06T17:09:36.045Z,4.05
2019-03-06T17:12:06.006Z,3.27
2019-03-06T17:14:35.726Z,2.60
2019-03-06T17:17:06.061Z,2.72
2019-03-06T17:19:35.779Z,2.60
2019-03-06T17:22:05.541Z,2.85
2019-03-06T17:24:35.193Z,2.17
2019-03-06T17:27:05.391Z,2.50
2019-03-06T17:29:35.053Z,2.58
2019-03-06T17:32:04.888Z,30.57
2019-03-06T17:34:34.525Z,102.35
2019-03-06T17:37:04.723Z,77.97
2019-03-06T17:39:34.421Z,34.10
2019-03-06T17:42:04.135Z,17.05
2019-03-06T17:44:34.114Z,22.62
2019-03-06T17:47:03.999Z,13.13
2019-03-06T17:49:35.026Z,8.03
2019-03-06T17:52:04.896Z,4.10
2019-03-06T17:54:34.656Z,5.60
2019-03-06T17:57:04.316Z,5.40
2019-03-06T17:59:33.941Z,4.85
2019-03-06T18:02:04.570Z,3.95
2019-03-06T18:04:34.552Z,3.55
2019-03-06T18:07:06.072Z,3.90
2019-03-06T18:09:36.043Z,3.20
2019-03-06T18:12:06.078Z,3.35
2019-03-06T18:14:35.795Z,3.10
2019-03-06T18:17:05.413Z,2.75
2019-03-06T18:19:35.059Z,2.72
2019-03-06T18:22:04.750Z,2.98
2019-03-06T18:24:34.396Z,2.80
2019-03-06T18:27:04.260Z,3.42
2019-03-06T18:29:34.036Z,4.15
2019-03-06T18:32:03.958Z,3.35
2019-03-06T18:34:33.582Z,2.90
2019-03-06T18:37:03.227Z,3.52
2019-03-06T18:39:32.914Z,3.27
2019-03-06T18:42:03.976Z,3.08
2019-03-06T18:44:33.670Z,4.03
2019-03-06T18:47:03.315Z,3.50
2019-03-06T18:49:32.947Z,2.87
2019-03-06T18:52:02.581Z,3.17
2019-03-06T18:54:32.282Z,3.40
2019-03-06T18:57:01.993Z,2.83
2019-03-06T18:59:31.686Z,2.72
2019-03-06T19:02:01.330Z,3.02
2019-03-06T19:04:30.951Z,3.92
2019-03-06T19:07:00.606Z,5.10
2019-03-06T19:09:30.400Z,3.50
2019-03-06T19:12:00.107Z,3.62
2019-03-06T19:14:29.805Z,5.03
2019-03-06T19:16:59.524Z,5.37
2019-03-06T19:19:29.220Z,5.78
2019-03-06T19:21:58.937Z,7.10
2019-03-06T19:24:28.560Z,6.53
2019-03-06T19:26:58.206Z,6.90
2019-03-06T19:29:27.840Z,6.33
2019-03-06T19:31:57.557Z,5.03
2019-03-06T19:34:27.190Z,5.62
2019-03-06T19:36:56.918Z,5.85
2019-03-06T19:39:26.540Z,5.83
2019-03-06T19:41:56.189Z,5.17
2019-03-06T19:44:25.815Z,4.58
2019-03-06T19:46:55.458Z,4.95
2019-03-06T19:49:25.065Z,4.08
2019-03-06T19:51:54.981Z,4.58
2019-03-06T19:54:24.599Z,4.35
2019-03-06T19:56:55.062Z,3.95
2019-03-06T19:59:24.806Z,4.30
2019-03-06T20:01:54.423Z,3.90
2019-03-06T20:04:24.601Z,4.10
2019-03-06T20:06:54.495Z,4.47
2019-03-06T20:09:26.643Z,3.70
2019-03-06T20:11:56.767Z,3.95
2019-03-06T20:14:26.614Z,3.87
2019-03-06T20:16:56.295Z,4.22
2019-03-06T20:19:25.940Z,3.70
2019-03-06T20:21:55.558Z,3.70
2019-03-06T20:24:25.276Z,3.62
2019-03-06T20:26:55.297Z,3.70
2019-03-06T20:29:24.942Z,4.60
2019-03-06T20:31:54.699Z,4.08
2019-03-06T20:34:24.347Z,3.95
2019-03-06T20:36:54.296Z,4.10
2019-03-06T20:39:24.149Z,5.10
2019-03-06T20:41:53.756Z,4.55
2019-03-06T20:44:23.394Z,4.65
2019-03-06T20:46:53.016Z,5.20
2019-03-06T20:49:22.661Z,4.33
2019-03-06T20:51:52.273Z,5.25
2019-03-06T20:54:21.916Z,5.45
2019-03-06T20:56:51.533Z,5.28
2019-03-06T20:59:21.166Z,5.62
2019-03-06T21:01:50.786Z,5.00
2019-03-06T21:04:20.509Z,6.40
2019-03-06T21:06:50.503Z,5.97
2019-03-06T21:09:20.147Z,8.18
2019-03-06T21:11:49.942Z,7.15
2019-03-06T21:14:19.581Z,6.70
2019-03-06T21:16:49.262Z,7.35
2019-03-06T21:19:18.903Z,8.18
2019-03-06T21:21:48.518Z,11.48
2019-03-06T21:24:18.160Z,12.88
2019-03-06T21:26:47.780Z,12.18
2019-03-06T21:29:17.426Z,12.13
2019-03-06T21:31:47.042Z,12.95
2019-03-06T21:34:16.754Z,8.25
2019-03-06T21:36:46.373Z,6.87
2019-03-06T21:39:24.579Z,8.25
2019-03-06T21:41:54.352Z,7.22
2019-03-06T21:44:24.127Z,7.58
2019-03-06T21:46:53.823Z,7.28
2019-03-06T21:49:23.594Z,5.58
2019-03-06T21:51:53.209Z,6.45
2019-03-06T21:54:23.133Z,5.97
2019-03-06T21:56:52.757Z,6.20
2019-03-06T21:59:22.402Z,6.62
2019-03-06T22:01:52.077Z,6.25
2019-03-06T22:04:21.720Z,6.35
2019-03-06T22:06:51.478Z,6.53
2019-03-06T22:09:21.299Z,5.90
2019-03-06T22:11:50.909Z,6.30
2019-03-06T22:14:21.297Z,6.40
2019-03-06T22:16:50.948Z,5.00
2019-03-06T22:19:20.657Z,5.20
2019-03-06T22:21:50.653Z,4.72
2019-03-06T22:24:20.287Z,4.42
2019-03-06T22:26:49.904Z,4.65
2019-03-06T22:29:19.541Z,5.35
2019-03-06T22:31:49.155Z,5.08
2019-03-06T22:34:18.790Z,4.58
2019-03-06T22:36:48.787Z,5.12
2019-03-06T22:39:18.422Z,5.78
2019-03-06T22:41:48.038Z,5.20
2019-03-06T22:44:17.675Z,5.87
2019-03-06T22:46:47.292Z,4.47
2019-03-06T22:49:16.933Z,5.83
2019-03-06T22:51:46.727Z,5.80
2019-03-06T22:54:16.367Z,5.97
2019-03-06T22:56:45.973Z,5.05
2019-03-06T22:59:15.587Z,5.22
2019-03-06T23:01:46.140Z,4.87
2019-03-06T23:04:15.938Z,5.12
2019-03-06T23:06:45.641Z,4.85
2019-03-06T23:09:15.526Z,4.35
2019-03-06T23:11:45.803Z,4.47
2019-03-06T23:14:15.412Z,3.60
2019-03-06T23:16:45.051Z,4.22
2019-03-06T23:19:14.667Z,4.80
2019-03-06T23:21:44.305Z,5.28
2019-03-06T23:24:13.918Z,4.90
2019-03-06T23:26:43.561Z,4.75
2019-03-06T23:29:13.233Z,4.65
2019-03-06T23:31:43.262Z,4.65
2019-03-06T23:34:12.872Z,4.55
2019-03-06T23:36:42.513Z,4.22
2019-03-06T23:39:13.367Z,4.50
2019-03-06T23:41:43.270Z,3.67
2019-03-06T23:44:13.254Z,4.20
2019-03-06T23:46:42.886Z,4.12
2019-03-06T23:49:12.565Z,3.42
2019-03-06T23:51:43.848Z,3.87
2019-03-06T23:54:13.536Z,4.15
2019-03-06T23:56:43.241Z,3.50
2019-03-06T23:59:12.855Z,3.50
